Share

Albany, KY

Byrdstown Water Plant (KTNBYRDS2) Elev 774 ft | 36.54 °N, 85.17 °W | Change Station

Current weather conditions updated 3 seconds ago

Clear
Clear
48.4 °F
Feels Like 48 °F
N
0.0
Wind Variable Wind from NNE
Gusts 0.0 mph
Sunrise 6:01 AM
Sunset 7:18 PM
Moon Waning Gibbous

Today is forecast to be Cooler than yesterday.

Pressure 30.18 in
Visibility 10.0 miles
Clouds Clear
Windchill 48 °F
Dew Point 44 °F
Humidity 85%
Rainfall 0.00 in
Snow Depth Not available.
UV 0 out of 16
Pollen 9.30 out of 12
Air Quality Not available.
Flu Activity Sporadic
METAR KSME 190715Z AUTO 00000KT 10SM CLR 11/04 A3018 RMK AO2

More Conditions Fewer Conditions

Pressure 30.18 in
Visibility 10.0 miles
Clouds Clear
Windchill 48 °F
Dew Point 44 °F
Humidity 85%
Rainfall 0.00 in
Snow Depth Not available.
UV 0 out of 16
Pollen 9.30 out of 12
Air Quality Not available.
Flu Activity Sporadic
METAR KSME 190715Z AUTO 00000KT 10SM CLR 11/04 A3018 RMK AO2

More Conditions Fewer Conditions

10-Day Weather Forecast

Almanac

Astronomy

Apr. 19, 2014 Rise Set
Actual Time 6:01 AM CDT 7:18 PM CDT
Civil Twilight 5:34 AM CDT 7:45 PM CDT
Nautical Twilight 5:02 AM CDT 8:17 PM CDT
Astronomical Twilight 4:28 AM CDT 8:51 PM CDT
Moon 11:55 PM CDT 9:22 AM CDT
Length of Visible Light 14h 11m
Length of Day
13h 17m
Tomorrow will be 2m 10s longer.
Waning Gibbous, 82% of the Moon is Illuminated
Today
Waning Gibbous
Apr 22
Last Quarter
Apr 29
New
May 6
First Quarter
May 14
Full

Today's Extremes

State Highs State Lows

Community

  • Sunset Silhouettes
    Sunset Silhouettes
  • FL sunset Perico Isle
    FL sunset Perico Isle
  • Cloudy spring view
    Cloudy spring view
  • Old barn
    Old barn
  • What's for Lunch?
    What's for Lunch?

WunderPhotos

Upload Photos

1,702,669 photos uploaded!

WunderBlogs® & News

Nearby

Snow Depth

Station Depth Elevation
No new snow has been reported.

Coastal Water Temperatures

Place Temperature
No Stations Reporting

Earthquake Activity

City Distance Mag. Time & Date
Englewood, Tennessee 95 miles 2.8 9:34 PM CDT
2014-04-12
Minimum magnitude displayed is 2.5.

Nearby Weather Stations

Station Location Temp. Windchill Dew Point Humidity Wind Precip. Elev Updated Type
Byrdstown Water Plant, Byrdstown, TN 48.4 °F 48 °F 44 °F 85% NNE  at  0.0 mph 0.00 in / hr 774 ft 2:41 AM CDT Rapid Fire
Allons, TN 49.3 °F 49 °F 48 °F 94% North  at  0.0 mph - / hr 663 ft 2:33 AM CDT Normal
Balcony Bend, Jamestown, KY 49.2 °F 49 °F 45 °F 87% NNE  at  0.0 mph 0.00 in / hr 817 ft 2:40 AM CDT Normal
Center Point Ky, Tompkinsville, KY 46.9 °F 47 °F 44 °F 88% North  at  0.0 mph - / hr 740 ft 2:28 AM CDT Normal
On the Square, Celina, TN 47.6 °F 48 °F 45 °F 92% SW  at  0.0 mph 0.00 in / hr 574 ft 2:41 AM CDT Rapid Fire

Show More Stations Show Fewer Stations

What do you think?

We're not finished. Please let us know what you like, what you don't like, and what you are still missing.